Time;durP1;ratioP1;P1;durP2;ratioP2;P2;SDS_P1;SDS_P2;PMS_P1;PMS_P2;Temp;Humidity;BMP_temperature;BMP_pressure;BME280_temperature;BME280_humidity;BME280_pressure;Samples;Min_cycle;Max_cycle;Signal;HPM_P1;HPM_P2
2023/10/14 00:00:37;;;;;;;6.07;2.38;;;;;;;;;;5006040;28;20037;-83
2023/10/14 00:03:23;;;;;;;5.85;2.40;;;;;;;;;;5009426;28;20033;-82
2023/10/14 00:05:49;;;;;;;7.75;3.08;;;;;;;;;;5009832;28;20100;-80
2023/10/14 00:08:14;;;;;;;5.50;1.98;;;;;;;;;;5009523;28;20038;-81
2023/10/14 00:10:39;;;;;;;8.15;2.55;;;;;;;;;;5008116;28;20694;-82
2023/10/14 00:13:10;;;;;;;6.35;2.22;;;;;;;;;;5006204;28;20061;-82
2023/10/14 00:15:36;;;;;;;5.28;2.40;;;;;;;;;;5003860;28;20068;-81
2023/10/14 00:18:01;;;;;;;5.00;2.55;;;;;;;;;;5003470;28;20401;-81
2023/10/14 00:20:34;;;;;;;11.23;2.40;;;;;;;;;;5008204;28;20046;-82
2023/10/14 00:22:59;;;;;;;7.15;2.67;;;;;;;;;;5003807;28;20965;-82
2023/10/14 00:25:25;;;;;;;7.45;2.60;;;;;;;;;;5008715;28;20405;-80
2023/10/14 00:27:50;;;;;;;7.18;2.83;;;;;;;;;;5010645;28;20099;-79
2023/10/14 00:30:19;;;;;;;4.80;2.28;;;;;;;;;;5008036;28;20029;-80
2023/10/14 00:32:44;;;;;;;5.53;2.45;;;;;;;;;;5009353;28;20017;-80
2023/10/14 00:35:11;;;;;;;2.97;2.22;;;;;;;;;;5008819;28;20022;-79
2023/10/14 00:37:37;;;;;;;4.93;2.45;;;;;;;;;;5008278;28;20029;-82
2023/10/14 00:40:11;;;;;;;7.00;2.65;;;;;;;;;;5004494;28;20117;-78
2023/10/14 00:42:37;;;;;;;5.63;2.30;;;;;;;;;;5009324;28;20026;-79
2023/10/14 00:45:09;;;;;;;6.38;2.45;;;;;;;;;;5010246;28;20030;-80
2023/10/14 00:47:43;;;;;;;6.18;2.55;;;;;;;;;;5002794;28;20142;-79
2023/10/14 00:50:58;;;;;;;;;;;;;;;;;;5014296;28;20031;-78
2023/10/14 00:52:57;;;;;;;3.13;2.00;;;;;;;;;;5010164;28;19914;-80
2023/10/14 00:55:42;;;;;;;7.32;2.55;;;;;;;;;;5010386;28;20046;-81
2023/10/14 00:58:07;;;;;;;7.43;2.55;;;;;;;;;;5006370;28;20034;-80
2023/10/14 01:00:39;;;;;;;2.97;2.08;;;;;;;;;;5001694;28;20034;-81
2023/10/14 01:03:09;;;;;;;10.38;2.72;;;;;;;;;;5004869;28;20030;-79
2023/10/14 01:05:38;;;;;;;7.47;2.50;;;;;;;;;;5008277;28;20052;-81
2023/10/14 01:08:09;;;;;;;6.55;2.58;;;;;;;;;;5006938;28;20031;-81
2023/10/14 01:10:34;;;;;;;4.80;2.30;;;;;;;;;;5009991;28;21044;-81
2023/10/14 01:13:06;;;;;;;5.95;2.10;;;;;;;;;;5008901;28;20030;-79
2023/10/14 01:15:31;;;;;;;7.53;2.33;;;;;;;;;;5009939;28;20030;-78
2023/10/14 01:17:57;;;;;;;9.00;3.10;;;;;;;;;;5014528;28;20500;-81
2023/10/14 01:22:57;;;;;;;10.75;2.70;;;;;;;;;;5013044;28;20037;-81
2023/10/14 01:25:25;;;;;;;4.30;2.30;;;;;;;;;;5005961;28;20061;-82
2023/10/14 01:27:51;;;;;;;4.20;2.10;;;;;;;;;;5010321;28;20450;-79
2023/10/14 01:30:24;;;;;;;10.15;2.60;;;;;;;;;;5012052;28;20030;-80
2023/10/14 01:32:50;;;;;;;4.43;2.42;;;;;;;;;;5013287;28;20421;-81
2023/10/14 01:35:24;;;;;;;3.47;2.10;;;;;;;;;;5010011;28;20040;-82
2023/10/14 01:37:51;;;;;;;;;;;;;;;;;;5010350;28;20026;-80
2023/10/14 01:40:24;;;;;;;4.07;2.00;;;;;;;;;;5011721;28;19914;-80
2023/10/14 01:42:56;;;;;;;9.02;2.85;;;;;;;;;;5008670;28;20445;-81
2023/10/14 01:45:29;;;;;;;5.68;2.25;;;;;;;;;;5009830;28;20474;-80
2023/10/14 01:48:11;;;;;;;5.13;2.35;;;;;;;;;;5007400;28;20044;-82
2023/10/14 01:50:46;;;;;;;7.07;2.25;;;;;;;;;;5011840;28;20049;-80
2023/10/14 01:53:21;;;;;;;6.65;2.47;;;;;;;;;;5007740;28;20038;-80
2023/10/14 01:55:47;;;;;;;5.20;2.63;;;;;;;;;;5009073;28;20042;-81
2023/10/14 01:58:22;;;;;;;6.28;2.80;;;;;;;;;;5007937;28;20046;-77
2023/10/14 02:01:04;;;;;;;7.18;2.70;;;;;;;;;;4999189;28;20532;-79
2023/10/14 02:03:33;;;;;;;4.25;2.42;;;;;;;;;;5007913;28;20030;-81
2023/10/14 02:05:58;;;;;;;8.77;2.80;;;;;;;;;;5009520;28;20029;-79
2023/10/14 02:08:24;;;;;;;5.80;2.70;;;;;;;;;;5009625;28;20034;-82
2023/10/14 02:10:50;;;;;;;6.85;2.75;;;;;;;;;;5007145;28;20097;-81
2023/10/14 02:13:17;;;;;;;7.60;2.80;;;;;;;;;;5008630;28;20038;-82
2023/10/14 02:15:46;;;;;;;4.65;2.38;;;;;;;;;;5010486;28;20561;-81
2023/10/14 02:18:20;;;;;;;9.68;2.92;;;;;;;;;;5007590;28;20022;-80
2023/10/14 02:21:05;;;;;;;6.75;3.28;;;;;;;;;;5008510;28;20030;-83
2023/10/14 02:23:44;;;;;;;8.98;2.50;;;;;;;;;;5010324;28;20080;-83
2023/10/14 02:26:12;;;;;;;5.70;2.70;;;;;;;;;;5004682;28;20049;-81
2023/10/14 02:28:40;;;;;;;8.68;2.72;;;;;;;;;;5002880;28;20406;-79
2023/10/14 02:31:16;;;;;;;7.05;2.83;;;;;;;;;;5003815;28;20092;-79
2023/10/14 02:33:46;;;;;;;14.40;2.70;;;;;;;;;;4995567;28;20033;-82
2023/10/14 02:36:15;;;;;;;6.63;2.75;;;;;;;;;;4994778;28;20431;-80
2023/10/14 02:38:53;;;;;;;3.65;2.33;;;;;;;;;;4995591;28;20010;-81
2023/10/14 02:41:20;;;;;;;8.07;2.72;;;;;;;;;;5004018;28;20048;-80
2023/10/14 02:43:49;;;;;;;5.75;2.55;;;;;;;;;;5021284;28;20038;-80
2023/10/14 02:46:20;;;;;;;3.95;2.40;;;;;;;;;;5006679;28;20096;-80
2023/10/14 02:48:52;;;;;;;11.70;2.83;;;;;;;;;;5007250;28;20142;-82
2023/10/14 02:51:29;;;;;;;4.28;2.90;;;;;;;;;;5008821;28;20409;-79
2023/10/14 02:53:56;;;;;;;6.57;2.72;;;;;;;;;;5008708;28;20108;-81
2023/10/14 02:56:32;;;;;;;4.60;2.42;;;;;;;;;;5008805;28;20086;-80
2023/10/14 02:58:57;;;;;;;7.53;2.78;;;;;;;;;;5007497;28;20084;-81
2023/10/14 03:01:31;;;;;;;4.85;2.90;;;;;;;;;;5003177;28;20034;-80
2023/10/14 03:03:56;;;;;;;3.20;2.22;;;;;;;;;;5007326;28;20476;-80
2023/10/14 03:06:22;;;;;;;5.65;2.50;;;;;;;;;;5008641;28;20022;-81
2023/10/14 03:08:57;;;;;;;6.70;2.60;;;;;;;;;;5009564;28;20022;-81
2023/10/14 03:11:25;;;;;;;4.55;2.38;;;;;;;;;;5008155;28;20034;-81
2023/10/14 03:13:51;;;;;;;7.10;2.53;;;;;;;;;;5010186;28;20494;-79
2023/10/14 03:16:17;;;;;;;10.18;3.10;;;;;;;;;;5006190;28;20046;-81
2023/10/14 03:18:44;;;;;;;4.90;2.35;;;;;;;;;;5005385;28;20133;-82
2023/10/14 03:21:10;;;;;;;3.15;2.40;;;;;;;;;;5004693;28;20022;-81
2023/10/14 03:23:35;;;;;;;7.10;2.42;;;;;;;;;;5012184;28;20508;-81
2023/10/14 03:26:27;;;;;;;5.38;2.53;;;;;;;;;;5009293;28;20068;-80
2023/10/14 03:28:50;;;;;;;6.43;2.45;;;;;;;;;;5004772;28;20038;-82
2023/10/14 03:31:16;;;;;;;5.38;2.50;;;;;;;;;;5008857;28;20030;-81
2023/10/14 03:33:44;;;;;;;4.28;2.45;;;;;;;;;;5014420;28;20297;-79
2023/10/14 03:36:17;;;;;;;10.73;2.88;;;;;;;;;;5002458;28;20077;-79
2023/10/14 03:38:55;;;;;;;8.45;2.97;;;;;;;;;;5010510;28;20021;-77
2023/10/14 03:41:21;;;;;;;6.10;3.03;;;;;;;;;;5016437;28;20181;-78
2023/10/14 03:43:58;;;;;;;7.53;2.70;;;;;;;;;;5018062;28;20046;-78
2023/10/14 03:48:57;;;;;;;7.22;2.90;;;;;;;;;;5001203;28;20043;-79
2023/10/14 03:51:24;;;;;;;12.32;3.25;;;;;;;;;;4997922;28;20206;-80
2023/10/14 03:53:54;;;;;;;15.10;2.88;;;;;;;;;;4996981;28;20037;-80
2023/10/14 03:56:27;;;;;;;5.03;2.63;;;;;;;;;;4996973;28;20074;-77
2023/10/14 03:58:57;;;;;;;5.10;2.88;;;;;;;;;;4978097;28;20050;-78
2023/10/14 04:09:43;;;;;;;7.43;2.60;;;;;;;;;;4996921;28;20038;-80
2023/10/14 04:12:22;;;;;;;16.30;3.10;;;;;;;;;;5000921;28;20381;-80
2023/10/14 04:14:54;;;;;;;8.88;2.97;;;;;;;;;;5014983;28;20375;-78
2023/10/14 04:17:20;;;;;;;13.52;2.70;;;;;;;;;;5014251;28;20034;-80
2023/10/14 04:19:53;;;;;;;5.05;2.65;;;;;;;;;;5012035;28;20137;-79
2023/10/14 04:22:32;;;;;;;4.57;2.20;;;;;;;;;;5015405;28;20045;-79
2023/10/14 04:30:21;;;;;;;9.20;3.17;;;;;;;;;;4977138;28;20030;-78
2023/10/14 04:35:25;;;;;;;5.63;3.20;;;;;;;;;;5014812;28;20041;-77
2023/10/14 04:37:55;;;;;;;7.88;3.00;;;;;;;;;;5015340;28;20041;-79
2023/10/14 04:43:11;;;;;;;4.82;3.10;;;;;;;;;;4996300;28;20403;-79
2023/10/14 04:45:45;;;;;;;8.18;2.92;;;;;;;;;;4999754;28;20139;-79
2023/10/14 04:48:14;;;;;;;3.13;2.65;;;;;;;;;;5015306;28;20109;-78
2023/10/14 04:50:40;;;;;;;4.53;2.97;;;;;;;;;;5014550;28;20025;-79
2023/10/14 04:53:06;;;;;;;5.03;2.78;;;;;;;;;;5015432;28;20045;-79
2023/10/14 04:55:36;;;;;;;7.47;3.17;;;;;;;;;;5014902;28;20044;-77
2023/10/14 05:00:45;;;;;;;7.20;3.47;;;;;;;;;;5015665;28;20022;-80
2023/10/14 05:03:14;;;;;;;;;;;;;;;;;;5017883;28;20026;-79
2023/10/14 05:05:45;;;;;;;6.72;3.38;;;;;;;;;;5016109;28;19917;-78
2023/10/14 05:08:15;;;;;;;6.30;3.33;;;;;;;;;;5015418;28;20498;-79
2023/10/14 05:10:42;;;;;;;11.63;3.28;;;;;;;;;;5014299;28;20033;-80
2023/10/14 05:13:09;;;;;;;6.82;3.65;;;;;;;;;;5014448;28;20030;-79
2023/10/14 05:15:39;;;;;;;4.28;3.28;;;;;;;;;;5010184;28;20034;-79
2023/10/14 05:18:05;;;;;;;13.98;3.22;;;;;;;;;;5007192;28;20029;-79
2023/10/14 05:23:34;;;;;;;3.65;2.83;;;;;;;;;;4934466;29;20055;-79
2023/10/14 05:25:59;;;;;;;4.30;3.13;;;;;;;;;;4934915;29;20142;-79
2023/10/14 05:28:31;;;;;;;8.57;3.10;;;;;;;;;;4961229;28;20039;-79
2023/10/14 05:30:58;;;;;;;3.95;3.30;;;;;;;;;;4992958;28;20038;-79
2023/10/14 05:33:24;;;;;;;11.77;3.70;;;;;;;;;;5005852;28;20041;-78
2023/10/14 05:35:50;;;;;;;8.43;3.80;;;;;;;;;;5005360;28;20089;-80
2023/10/14 05:38:17;;;;;;;4.03;2.78;;;;;;;;;;5012680;28;20532;-78
2023/10/14 05:40:43;;;;;;;13.50;3.15;;;;;;;;;;5001730;28;20034;-78
2023/10/14 05:43:08;;;;;;;6.07;2.95;;;;;;;;;;4994661;28;20092;-79
2023/10/14 05:45:37;;;;;;;5.82;3.00;;;;;;;;;;5000085;28;20517;-79
2023/10/14 05:48:07;;;;;;;16.20;3.85;;;;;;;;;;4998982;28;20113;-77
2023/10/14 05:50:35;;;;;;;7.63;3.20;;;;;;;;;;5001979;28;20565;-79
2023/10/14 05:53:01;;;;;;;6.28;3.30;;;;;;;;;;5012881;28;20057;-79
2023/10/14 05:55:29;;;;;;;6.32;3.63;;;;;;;;;;5005262;28;20034;-79
2023/10/14 05:57:58;;;;;;;6.70;3.58;;;;;;;;;;4999210;28;20115;-79
2023/10/14 06:00:27;;;;;;;6.18;3.63;;;;;;;;;;5014132;28;20038;-77
2023/10/14 06:02:54;;;;;;;5.38;3.45;;;;;;;;;;5017594;28;20029;-80
2023/10/14 06:05:24;;;;;;;9.50;3.53;;;;;;;;;;5009332;28;20031;-79
2023/10/14 06:07:59;;;;;;;6.13;3.38;;;;;;;;;;5011261;28;20035;-77
2023/10/14 06:10:26;;;;;;;9.50;3.28;;;;;;;;;;4998177;28;20122;-81
2023/10/14 06:12:52;;;;;;;6.40;3.10;;;;;;;;;;4999504;28;20061;-79
2023/10/14 06:15:18;;;;;;;9.35;3.78;;;;;;;;;;5004819;28;20033;-80
2023/10/14 06:17:49;;;;;;;9.85;4.40;;;;;;;;;;4997638;28;20399;-78
2023/10/14 06:20:15;;;;;;;4.38;3.20;;;;;;;;;;4997486;28;20041;-79
2023/10/14 06:22:42;;;;;;;12.57;6.10;;;;;;;;;;4997417;28;20076;-79
2023/10/14 06:25:07;;;;;;;4.90;3.50;;;;;;;;;;5012225;28;20116;-80
2023/10/14 06:27:32;;;;;;;7.15;4.07;;;;;;;;;;5016006;28;20549;-78
2023/10/14 06:29:58;;;;;;;7.55;3.22;;;;;;;;;;5011936;28;20025;-79
2023/10/14 06:32:23;;;;;;;6.57;3.60;;;;;;;;;;4998289;28;20090;-78
2023/10/14 06:34:57;;;;;;;5.78;3.47;;;;;;;;;;5002118;28;20121;-78
2023/10/14 06:37:24;;;;;;;7.68;3.95;;;;;;;;;;4996634;28;20461;-77
2023/10/14 06:39:50;;;;;;;7.70;3.72;;;;;;;;;;4996001;28;20041;-78
2023/10/14 06:42:19;;;;;;;17.50;4.47;;;;;;;;;;5002532;28;20033;-79
2023/10/14 06:44:45;;;;;;;8.80;3.53;;;;;;;;;;5016434;28;20053;-77
2023/10/14 06:47:10;;;;;;;5.53;3.50;;;;;;;;;;5014833;28;20525;-79
2023/10/14 06:49:41;;;;;;;8.07;3.75;;;;;;;;;;5015747;28;20034;-79
2023/10/14 06:52:07;;;;;;;6.03;3.80;;;;;;;;;;5014578;28;20030;-78
2023/10/14 06:54:36;;;;;;;5.55;3.70;;;;;;;;;;5015565;28;20037;-79
2023/10/14 06:57:07;;;;;;;9.43;3.78;;;;;;;;;;5016276;28;20018;-80
2023/10/14 06:59:38;;;;;;;6.75;4.20;;;;;;;;;;5016407;28;20169;-79
2023/10/14 07:02:04;;;;;;;9.90;4.28;;;;;;;;;;5013272;28;20045;-80
2023/10/14 07:04:29;;;;;;;8.43;3.85;;;;;;;;;;5015001;28;20030;-79
2023/10/14 07:06:58;;;;;;;8.93;4.18;;;;;;;;;;5009474;28;20038;-78
2023/10/14 07:09:27;;;;;;;6.22;3.78;;;;;;;;;;4995980;28;20054;-78
2023/10/14 07:11:55;;;;;;;5.22;3.83;;;;;;;;;;4996158;28;20093;-80
2023/10/14 07:14:21;;;;;;;9.38;4.10;;;;;;;;;;4996191;28;20105;-78
2023/10/14 07:16:46;;;;;;;6.47;3.80;;;;;;;;;;4995759;28;20155;-80
2023/10/14 07:19:11;;;;;;;12.95;4.30;;;;;;;;;;4996430;28;20205;-78
2023/10/14 07:21:37;;;;;;;6.15;3.65;;;;;;;;;;4997124;28;20045;-78
2023/10/14 07:24:08;;;;;;;7.97;3.67;;;;;;;;;;4996491;28;20113;-80
2023/10/14 07:26:39;;;;;;;8.60;3.85;;;;;;;;;;4996708;28;20053;-78
2023/10/14 07:29:05;;;;;;;14.77;4.05;;;;;;;;;;5014716;28;20096;-77
2023/10/14 07:31:31;;;;;;;7.80;3.78;;;;;;;;;;5019277;28;20509;-80
2023/10/14 07:34:02;;;;;;;5.50;4.40;;;;;;;;;;5014905;28;20046;-78
2023/10/14 07:36:34;;;;;;;10.48;4.18;;;;;;;;;;5012843;28;20026;-79
2023/10/14 07:39:27;;;;;;;6.72;4.22;;;;;;;;;;4996721;28;20033;-78
2023/10/14 07:41:52;;;;;;;6.10;4.15;;;;;;;;;;4995997;28;20069;-80
2023/10/14 07:44:22;;;;;;;6.90;4.05;;;;;;;;;;4995325;28;20077;-80
2023/10/14 07:46:49;;;;;;;5.90;4.00;;;;;;;;;;4993565;28;20161;-80
2023/10/14 07:49:14;;;;;;;7.88;4.25;;;;;;;;;;4995893;28;20450;-78
2023/10/14 07:51:39;;;;;;;6.82;4.00;;;;;;;;;;4997880;28;20033;-77
2023/10/14 07:54:07;;;;;;;8.57;4.35;;;;;;;;;;5014851;28;20453;-79
2023/10/14 07:56:32;;;;;;;9.85;4.07;;;;;;;;;;5018997;28;20030;-79
2023/10/14 07:58:58;;;;;;;10.25;4.70;;;;;;;;;;4997073;28;20034;-81
2023/10/14 08:01:23;;;;;;;10.88;4.93;;;;;;;;;;5000329;28;20030;-79
2023/10/14 08:03:49;;;;;;;5.40;4.25;;;;;;;;;;5017649;28;20041;-82
2023/10/14 08:06:17;;;;;;;4.93;4.18;;;;;;;;;;5015397;28;20040;-79
2023/10/14 08:08:47;;;;;;;6.80;3.50;;;;;;;;;;5000516;28;20026;-82
2023/10/14 08:11:14;;;;;;;7.70;4.13;;;;;;;;;;5007556;28;20048;-81
2023/10/14 08:13:43;;;;;;;3.25;2.95;;;;;;;;;;5008534;28;20042;-80
2023/10/14 08:16:09;;;;;;;6.57;2.50;;;;;;;;;;4995627;28;20060;-79
2023/10/14 08:18:37;;;;;;;6.40;2.97;;;;;;;;;;4995702;28;20117;-80
2023/10/14 08:21:03;;;;;;;10.82;2.70;;;;;;;;;;4995659;28;20022;-78
2023/10/14 08:23:29;;;;;;;2.33;2.13;;;;;;;;;;4994214;28;20038;-79
2023/10/14 08:25:55;;;;;;;3.92;2.55;;;;;;;;;;4995414;28;20035;-81
2023/10/14 08:28:24;;;;;;;6.57;2.50;;;;;;;;;;4995623;28;20038;-79
2023/10/14 08:30:52;;;;;;;3.97;2.70;;;;;;;;;;4995898;28;20117;-80
2023/10/14 08:33:19;;;;;;;7.75;3.00;;;;;;;;;;4995479;28;20026;-81
2023/10/14 08:35:45;;;;;;;4.55;2.90;;;;;;;;;;4997412;28;20120;-80
2023/10/14 08:38:14;;;;;;;4.22;2.78;;;;;;;;;;4996013;28;20034;-81
2023/10/14 08:40:43;;;;;;;4.18;3.20;;;;;;;;;;4996149;28;20546;-80
2023/10/14 08:43:14;;;;;;;4.45;2.80;;;;;;;;;;4995621;28;20108;-80
2023/10/14 08:45:41;;;;;;;7.10;3.03;;;;;;;;;;4995047;28;20072;-79
2023/10/14 08:48:11;;;;;;;8.80;3.05;;;;;;;;;;4994900;28;20029;-80
2023/10/14 08:50:39;;;;;;;4.85;2.80;;;;;;;;;;4995215;28;20442;-79
2023/10/14 08:53:06;;;;;;;7.50;3.47;;;;;;;;;;4993848;28;20058;-78
2023/10/14 08:55:33;;;;;;;6.97;3.25;;;;;;;;;;4995172;28;20088;-78
2023/10/14 08:58:04;;;;;;;7.50;3.08;;;;;;;;;;4994853;28;20058;-78
2023/10/14 09:00:35;;;;;;;5.25;3.15;;;;;;;;;;4995197;28;20295;-79
2023/10/14 09:03:02;;;;;;;5.38;3.40;;;;;;;;;;4995012;28;20445;-80
2023/10/14 09:05:30;;;;;;;6.00;2.95;;;;;;;;;;4995149;28;20045;-77
2023/10/14 09:07:57;;;;;;;6.45;2.80;;;;;;;;;;4993902;28;20030;-79
2023/10/14 09:10:24;;;;;;;4.38;2.95;;;;;;;;;;4993605;28;20041;-79
2023/10/14 09:13:09;;;;;;;5.07;2.40;;;;;;;;;;4994929;28;20341;-80
2023/10/14 09:15:39;;;;;;;13.40;4.18;;;;;;;;;;4995121;28;20034;-80
2023/10/14 09:18:11;;;;;;;5.20;2.70;;;;;;;;;;4993855;28;20034;-78
2023/10/14 09:20:38;;;;;;;9.55;2.90;;;;;;;;;;4994797;28;20065;-80
2023/10/14 09:23:19;;;;;;;4.55;2.58;;;;;;;;;;4994084;28;20034;-79
2023/10/14 09:25:50;;;;;;;5.70;3.08;;;;;;;;;;4994386;28;20503;-81
2023/10/14 09:28:21;;;;;;;8.63;3.35;;;;;;;;;;4993933;28;20064;-79
2023/10/14 09:30:50;;;;;;;3.38;2.22;;;;;;;;;;4994791;28;20031;-80
2023/10/14 09:33:19;;;;;;;4.75;2.50;;;;;;;;;;4996624;28;20046;-79
2023/10/14 09:35:53;;;;;;;5.82;2.92;;;;;;;;;;5003974;28;20026;-78
2023/10/14 09:38:22;;;;;;;7.00;3.03;;;;;;;;;;5003708;28;20394;-80
2023/10/14 09:40:57;;;;;;;7.55;2.90;;;;;;;;;;5018945;28;20513;-80
2023/10/14 09:43:24;;;;;;;4.53;3.13;;;;;;;;;;5016216;28;20322;-81
2023/10/14 09:45:57;;;;;;;5.07;2.78;;;;;;;;;;5013993;28;20038;-81
2023/10/14 09:48:30;;;;;;;7.88;3.35;;;;;;;;;;5017606;28;20399;-80
2023/10/14 09:51:02;;;;;;;7.07;3.50;;;;;;;;;;5017914;28;20029;-79
2023/10/14 09:53:29;;;;;;;9.35;2.47;;;;;;;;;;5021528;28;20041;-81
2023/10/14 09:56:05;;;;;;;9.57;2.78;;;;;;;;;;5020437;28;20072;-78
2023/10/14 09:58:40;;;;;;;3.35;2.30;;;;;;;;;;5015281;28;20045;-80
2023/10/14 10:01:11;;;;;;;5.72;2.50;;;;;;;;;;5012501;28;20049;-79
2023/10/14 10:03:44;;;;;;;4.15;2.45;;;;;;;;;;5003519;28;20030;-81
2023/10/14 10:06:21;;;;;;;6.85;3.05;;;;;;;;;;5007073;28;20499;-80
2023/10/14 10:08:59;;;;;;;6.82;2.65;;;;;;;;;;5006578;28;20094;-79
2023/10/14 10:11:25;;;;;;;3.88;2.80;;;;;;;;;;5011362;28;20132;-79
2023/10/14 10:13:52;;;;;;;9.05;2.90;;;;;;;;;;5019062;28;20038;-79
2023/10/14 10:16:30;;;;;;;2.38;2.17;;;;;;;;;;5012927;28;20042;-78
2023/10/14 10:18:57;;;;;;;6.63;3.00;;;;;;;;;;5017505;28;20033;-81
2023/10/14 10:21:30;;;;;;;4.72;2.50;;;;;;;;;;5022007;28;20111;-80
2023/10/14 10:24:17;;;;;;;6.70;3.30;;;;;;;;;;5015441;28;20029;-79
2023/10/14 10:27:04;;;;;;;6.15;2.60;;;;;;;;;;5020560;28;20041;-81
2023/10/14 10:29:42;;;;;;;5.25;2.60;;;;;;;;;;5016184;28;20049;-79
2023/10/14 10:32:11;;;;;;;4.28;2.03;;;;;;;;;;5018231;28;20038;-80
2023/10/14 10:35:09;;;;;;;3.90;2.30;;;;;;;;;;5018992;28;20465;-81
2023/10/14 10:37:55;;;;;;;5.22;2.25;;;;;;;;;;5017784;28;20410;-81
2023/10/14 10:40:28;;;;;;;7.10;2.63;;;;;;;;;;5017417;28;20110;-80
2023/10/14 10:42:58;;;;;;;3.13;2.00;;;;;;;;;;5007072;28;20035;-77
2023/10/14 10:45:31;;;;;;;3.45;2.03;;;;;;;;;;5005476;28;20069;-80
2023/10/14 10:47:58;;;;;;;4.88;2.47;;;;;;;;;;5006082;28;20066;-78
2023/10/14 10:50:36;;;;;;;2.95;1.90;;;;;;;;;;5008069;28;20061;-80
2023/10/14 10:53:07;;;;;;;3.58;2.20;;;;;;;;;;5004148;28;20196;-80
2023/10/14 10:55:38;;;;;;;3.28;1.75;;;;;;;;;;5005836;28;20034;-81
2023/10/14 10:58:07;;;;;;;1.95;1.75;;;;;;;;;;5004503;28;20042;-78
2023/10/14 11:00:33;;;;;;;4.85;2.13;;;;;;;;;;5010952;28;20077;-79
2023/10/14 11:03:00;;;;;;;5.43;2.25;;;;;;;;;;5019617;28;20032;-79
2023/10/14 11:05:26;;;;;;;2.45;2.10;;;;;;;;;;5015501;28;20038;-79
2023/10/14 11:07:53;;;;;;;4.20;2.03;;;;;;;;;;5018959;28;20031;-80
2023/10/14 11:10:33;;;;;;;5.65;2.17;;;;;;;;;;5019713;28;20037;-81
2023/10/14 11:12:58;;;;;;;3.83;1.85;;;;;;;;;;5016411;28;20042;-80
2023/10/14 11:15:26;;;;;;;9.02;2.22;;;;;;;;;;5014439;28;20036;-80
2023/10/14 11:17:52;;;;;;;6.45;2.03;;;;;;;;;;5019369;28;20025;-79
2023/10/14 11:20:20;;;;;;;3.08;1.77;;;;;;;;;;5018266;28;20502;-80
2023/10/14 11:22:45;;;;;;;2.42;2.10;;;;;;;;;;5007468;28;20026;-80
2023/10/14 11:25:12;;;;;;;10.00;2.42;;;;;;;;;;5007743;28;20094;-78
2023/10/14 11:27:38;;;;;;;3.95;2.22;;;;;;;;;;5005821;28;20078;-81
2023/10/14 11:30:06;;;;;;;6.97;2.00;;;;;;;;;;5007030;28;20018;-80
2023/10/14 11:32:31;;;;;;;6.68;1.80;;;;;;;;;;5015220;28;20057;-80
2023/10/14 11:34:58;;;;;;;3.80;2.20;;;;;;;;;;5019249;28;20042;-80
2023/10/14 11:37:26;;;;;;;3.90;2.47;;;;;;;;;;5020220;28;20469;-79
2023/10/14 11:39:53;;;;;;;3.60;2.10;;;;;;;;;;5016667;28;20045;-78
2023/10/14 11:42:18;;;;;;;4.10;2.00;;;;;;;;;;5019818;28;20529;-81
2023/10/14 11:44:48;;;;;;;2.95;2.33;;;;;;;;;;5017451;28;20219;-78
2023/10/14 11:47:16;;;;;;;4.68;1.90;;;;;;;;;;5018091;28;20742;-81
2023/10/14 11:49:46;;;;;;;4.30;2.03;;;;;;;;;;5011729;28;20035;-79
2023/10/14 11:52:11;;;;;;;3.33;2.00;;;;;;;;;;5017688;28;20957;-80
2023/10/14 11:54:41;;;;;;;4.85;2.13;;;;;;;;;;5017171;28;20058;-80
2023/10/14 11:57:07;;;;;;;5.82;2.13;;;;;;;;;;5021967;28;20057;-80
2023/10/14 11:59:33;;;;;;;5.35;2.70;;;;;;;;;;5017443;28;20045;-81
2023/10/14 12:01:58;;;;;;;2.97;1.85;;;;;;;;;;5014143;28;20037;-80
2023/10/14 12:04:24;;;;;;;6.38;2.15;;;;;;;;;;5015272;28;20066;-79
2023/10/14 12:06:49;;;;;;;8.13;2.13;;;;;;;;;;5014972;28;20037;-80
2023/10/14 12:09:16;;;;;;;7.38;2.70;;;;;;;;;;5015258;28;20021;-80
2023/10/14 12:11:42;;;;;;;3.63;1.90;;;;;;;;;;5017590;28;20042;-78
2023/10/14 12:14:15;;;;;;;3.60;2.05;;;;;;;;;;5018013;28;20057;-79
2023/10/14 12:16:40;;;;;;;6.80;1.80;;;;;;;;;;5018811;28;20030;-79
2023/10/14 12:19:06;;;;;;;4.80;2.00;;;;;;;;;;5020716;28;20045;-80
2023/10/14 12:21:31;;;;;;;3.70;2.03;;;;;;;;;;5015785;28;20125;-79
2023/10/14 12:24:02;;;;;;;4.25;1.90;;;;;;;;;;5016458;28;20038;-79
2023/10/14 12:26:30;;;;;;;6.13;2.40;;;;;;;;;;5013394;28;20060;-80
2023/10/14 12:28:55;;;;;;;2.63;1.90;;;;;;;;;;5015587;28;20465;-80
2023/10/14 12:31:23;;;;;;;3.35;1.95;;;;;;;;;;5019399;28;20033;-80
2023/10/14 12:33:48;;;;;;;5.18;2.03;;;;;;;;;;5013809;28;20046;-80
2023/10/14 12:36:17;;;;;;;12.82;2.08;;;;;;;;;;5011219;28;20073;-80
2023/10/14 12:38:43;;;;;;;6.85;2.30;;;;;;;;;;5018907;28;20018;-79
2023/10/14 12:41:09;;;;;;;2.47;1.70;;;;;;;;;;5016677;28;20040;-81
2023/10/14 12:43:39;;;;;;;3.83;1.88;;;;;;;;;;5017903;28;20034;-79
2023/10/14 12:48:43;;;;;;;6.05;1.90;;;;;;;;;;5014937;28;20039;-79
2023/10/14 12:51:21;;;;;;;7.15;1.70;;;;;;;;;;5012811;28;20506;-78
2023/10/14 12:53:47;;;;;;;2.65;1.60;;;;;;;;;;5003060;28;20038;-78
2023/10/14 12:56:14;;;;;;;2.92;2.10;;;;;;;;;;5005462;28;20054;-79
2023/10/14 12:58:42;;;;;;;3.03;2.10;;;;;;;;;;5008016;28;20047;-78
2023/10/14 13:01:13;;;;;;;10.95;1.98;;;;;;;;;;5003897;28;20038;-79
2023/10/14 13:03:41;;;;;;;3.25;1.90;;;;;;;;;;5005747;28;20039;-78
2023/10/14 13:06:07;;;;;;;3.22;2.13;;;;;;;;;;5002256;28;20045;-80
2023/10/14 13:08:32;;;;;;;3.13;1.95;;;;;;;;;;5003927;28;20022;-80
2023/10/14 13:10:59;;;;;;;1.95;1.75;;;;;;;;;;5012615;28;20029;-79
2023/10/14 13:13:25;;;;;;;3.05;1.85;;;;;;;;;;5020541;28;20037;-79
2023/10/14 13:15:53;;;;;;;2.58;1.55;;;;;;;;;;5022360;28;20116;-78
2023/10/14 13:18:19;;;;;;;4.43;1.58;;;;;;;;;;5023594;28;20052;-80
2023/10/14 13:20:45;;;;;;;1.90;1.70;;;;;;;;;;5022552;28;20045;-81
2023/10/14 13:23:12;;;;;;;2.33;1.25;;;;;;;;;;5023556;28;20042;-80
2023/10/14 13:25:38;;;;;;;3.35;1.98;;;;;;;;;;5021322;28;20354;-80
2023/10/14 13:28:09;;;;;;;7.55;2.03;;;;;;;;;;5020091;28;20490;-78
2023/10/14 13:30:45;;;;;;;3.20;1.65;;;;;;;;;;5016134;28;20503;-79
2023/10/14 13:33:12;;;;;;;2.00;1.80;;;;;;;;;;5020499;28;20026;-80
2023/10/14 13:35:38;;;;;;;1.58;1.48;;;;;;;;;;5023275;28;20491;-80
2023/10/14 13:38:05;;;;;;;2.35;1.60;;;;;;;;;;5023916;28;20038;-79
2023/10/14 13:40:30;;;;;;;1.90;1.70;;;;;;;;;;5024688;28;20041;-80
2023/10/14 13:42:55;;;;;;;3.72;1.55;;;;;;;;;;5017622;28;20038;-79
2023/10/14 13:45:21;;;;;;;3.38;1.85;;;;;;;;;;5023044;28;20076;-78
2023/10/14 13:48:28;;;;;;;3.30;1.75;;;;;;;;;;5018833;28;20085;-80
2023/10/14 13:50:46;;;;;;;3.75;1.42;;;;;;;;;;5020978;28;20030;-80
2023/10/14 13:53:17;;;;;;;3.85;1.67;;;;;;;;;;5018490;28;20065;-80
2023/10/14 13:55:43;;;;;;;2.58;1.73;;;;;;;;;;5019135;28;20042;-80
2023/10/14 13:58:11;;;;;;;3.85;1.90;;;;;;;;;;5018486;28;20069;-79
2023/10/14 14:00:37;;;;;;;4.38;2.00;;;;;;;;;;5017161;28;20033;-79
2023/10/14 14:03:10;;;;;;;3.28;2.05;;;;;;;;;;5022679;28;20034;-79
2023/10/14 14:05:40;;;;;;;3.57;1.60;;;;;;;;;;5018630;28;20117;-80
2023/10/14 14:08:09;;;;;;;3.80;2.25;;;;;;;;;;5017665;28;20317;-80
2023/10/14 14:10:41;;;;;;;4.20;1.92;;;;;;;;;;5018770;28;20030;-80
2023/10/14 14:13:06;;;;;;;3.95;2.30;;;;;;;;;;5017464;28;20014;-79
2023/10/14 14:15:36;;;;;;;2.38;1.85;;;;;;;;;;5013923;28;20040;-77
2023/10/14 14:18:05;;;;;;;2.53;1.92;;;;;;;;;;5017904;28;20029;-80
2023/10/14 14:20:31;;;;;;;2.83;1.88;;;;;;;;;;5020904;28;20037;-80
2023/10/14 14:22:57;;;;;;;2.15;1.77;;;;;;;;;;5017120;28;20042;-78
2023/10/14 14:25:27;;;;;;;2.03;1.73;;;;;;;;;;5018286;28;20073;-79
2023/10/14 14:27:53;;;;;;;3.13;1.98;;;;;;;;;;5018167;28;20540;-80
2023/10/14 14:30:19;;;;;;;2.17;1.90;;;;;;;;;;5016279;28;20038;-80
2023/10/14 14:32:45;;;;;;;2.70;1.80;;;;;;;;;;5006333;28;20022;-79
2023/10/14 14:35:10;;;;;;;6.72;1.95;;;;;;;;;;5005595;28;20042;-79
2023/10/14 14:37:37;;;;;;;1.98;1.88;;;;;;;;;;5010637;28;20120;-79
2023/10/14 14:40:12;;;;;;;3.78;1.85;;;;;;;;;;5006771;28;20557;-80
2023/10/14 14:42:40;;;;;;;3.15;1.83;;;;;;;;;;5021018;28;20286;-79
2023/10/14 14:45:16;;;;;;;2.03;1.90;;;;;;;;;;5020307;28;20101;-80
2023/10/14 14:47:42;;;;;;;4.47;1.88;;;;;;;;;;5019471;28;20026;-79
2023/10/14 14:50:15;;;;;;;3.72;1.63;;;;;;;;;;5020872;28;20125;-81
2023/10/14 14:52:42;;;;;;;5.18;1.90;;;;;;;;;;5036350;28;20038;-79
2023/10/14 14:55:08;;;;;;;2.35;1.85;;;;;;;;;;5018206;28;20081;-80
2023/10/14 14:57:38;;;;;;;4.00;2.40;;;;;;;;;;5016908;28;20045;-78
2023/10/14 15:00:07;;;;;;;3.95;2.35;;;;;;;;;;5013720;28;20577;-81
2023/10/14 15:02:35;;;;;;;2.53;2.05;;;;;;;;;;5011030;28;20030;-80
2023/10/14 15:05:03;;;;;;;1.92;1.83;;;;;;;;;;5011635;28;20106;-79
2023/10/14 15:07:29;;;;;;;1.98;1.77;;;;;;;;;;5015100;28;20080;-79
2023/10/14 15:09:54;;;;;;;0.88;0.88;;;;;;;;;;5013754;28;20118;-80
2023/10/14 15:12:20;;;;;;;0.70;0.70;;;;;;;;;;5013692;28;20030;-79
2023/10/14 15:14:45;;;;;;;0.50;0.50;;;;;;;;;;5016381;28;20036;-80
2023/10/14 15:17:11;;;;;;;0.98;0.60;;;;;;;;;;5008792;28;20026;-83
2023/10/14 15:19:37;;;;;;;0.40;0.40;;;;;;;;;;5008180;28;20060;-82
2023/10/14 15:22:06;;;;;;;0.30;0.30;;;;;;;;;;5011861;28;20042;-81
2023/10/14 15:24:31;;;;;;;0.32;0.32;;;;;;;;;;5011037;28;20046;-80
2023/10/14 15:26:57;;;;;;;0.50;0.40;;;;;;;;;;5015892;28;20034;-80